Mattersburg, Austria
Current Conditions -  °F | °C
As of 4:20 AM on Friday 21 Nov 2014 (Local Time) from LOWW Reporting Station
Overcast Overcast  
Wind Chill: 38°   Ceiling: 3700
Heat Index: 43°   Visibility: 6mi
Dew Point: 39°   Wind: 8mph
Humidity: 87%   Direction: 330°NNW
Pressure: 30.27"   Gusts: NA
Location:  47.73°N, 16.39°E
Report Text: LOWW 210220Z 33007KT 9999 OVC037 06/04 Q1025 NOSIG
Loading
Personal Weather Stations






























Interactive Weather Map New forecast layout! Learn more

10-Day Weather Forecast

Advertisements
Track Severe Weather on mobile